Time;durP1;ratioP1;P1;durP2;ratioP2;P2;SDS_P1;SDS_P2;PMS_P1;PMS_P2;Temp;Humidity;BMP_temperature;BMP_pressure;BME280_temperature;BME280_humidity;BME280_pressure;Samples;Min_cycle;Max_cycle;Signal;HPM_P1;HPM_P2
2021/03/08 00:00:47;;;;;;;;;46.00;43.67;;;;;;;;5010904;28;8804;-77
2021/03/08 00:03:15;;;;;;;;;53.00;44.33;;;;;;;;5023627;28;8881;-78
2021/03/08 00:05:43;;;;;;;;;60.67;49.33;;;;;;;;5021625;28;8841;-77
2021/03/08 00:08:12;;;;;;;;;69.67;60.00;;;;;;;;5020992;28;8863;-77
2021/03/08 00:10:40;;;;;;;;;56.33;51.67;;;;;;;;5023836;28;8853;-77
2021/03/08 00:13:07;;;;;;;;;66.67;56.33;;;;;;;;5020388;28;8887;-78
2021/03/08 00:15:34;;;;;;;;;62.00;55.00;;;;;;;;5023839;28;8869;-78
2021/03/08 00:18:01;;;;;;;;;60.00;49.67;;;;;;;;5028165;28;8912;-76
2021/03/08 00:20:29;;;;;;;;;63.67;54.67;;;;;;;;5023819;28;8941;-73
2021/03/08 00:22:57;;;;;;;;;67.00;55.00;;;;;;;;5023321;28;8922;-78
2021/03/08 00:25:27;;;;;;;;;53.67;49.67;;;;;;;;5003465;28;8884;-76
2021/03/08 00:27:54;;;;;;;;;57.00;51.00;;;;;;;;5023963;28;8845;-77
2021/03/08 00:30:21;;;;;;;;;67.67;56.67;;;;;;;;5022013;28;8857;-77
2021/03/08 00:32:48;;;;;;;;;53.33;48.67;;;;;;;;5022623;28;8849;-77
2021/03/08 00:35:17;;;;;;;;;61.67;52.00;;;;;;;;5021575;28;8880;-77
2021/03/08 00:37:44;;;;;;;;;48.67;46.33;;;;;;;;5022558;28;8848;-77
2021/03/08 00:40:13;;;;;;;;;48.33;46.67;;;;;;;;5016833;28;9622;-77
2021/03/08 00:42:41;;;;;;;;;64.67;51.67;;;;;;;;5005121;28;8985;-77
2021/03/08 00:45:10;;;;;;;;;50.33;48.00;;;;;;;;5022950;28;8877;-77
2021/03/08 00:47:38;;;;;;;;;32.67;32.67;;;;;;;;5021723;28;9611;-79
2021/03/08 00:50:06;;;;;;;;;72.00;54.00;;;;;;;;5022919;28;8876;-77
2021/03/08 00:52:33;;;;;;;;;50.67;46.67;;;;;;;;5022575;28;9598;-77
2021/03/08 00:55:00;;;;;;;;;61.67;52.00;;;;;;;;5023151;28;8876;-77
2021/03/08 00:57:27;;;;;;;;;50.33;47.33;;;;;;;;5021440;28;8866;-77
2021/03/08 00:59:55;;;;;;;;;54.33;48.33;;;;;;;;5007364;28;8940;-76
2021/03/08 01:02:22;;;;;;;;;55.00;49.00;;;;;;;;5026099;28;9585;-76
2021/03/08 01:04:49;;;;;;;;;58.67;51.33;;;;;;;;5025430;28;8857;-78
2021/03/08 01:07:16;;;;;;;;;55.33;48.00;;;;;;;;5026493;28;8869;-79
2021/03/08 01:09:43;;;;;;;;;53.67;46.33;;;;;;;;5025333;28;8969;-78
2021/03/08 01:12:10;;;;;;;;;54.67;46.00;;;;;;;;5027050;28;8882;-76
2021/03/08 01:14:37;;;;;;;;;46.67;45.33;;;;;;;;5027723;28;8853;-79
2021/03/08 01:17:06;;;;;;;;;48.00;45.00;;;;;;;;5028220;28;8849;-75
2021/03/08 01:19:33;;;;;;;;;55.00;50.00;;;;;;;;5014465;28;9732;-78
2021/03/08 01:22:00;;;;;;;;;61.67;54.00;;;;;;;;5023697;28;8864;-76
2021/03/08 01:24:27;;;;;;;;;52.67;49.00;;;;;;;;5027137;28;8875;-78
2021/03/08 01:26:54;;;;;;;;;57.33;49.00;;;;;;;;5023794;28;8879;-78
2021/03/08 01:29:21;;;;;;;;;49.67;46.00;;;;;;;;5026459;28;8910;-77
2021/03/08 01:31:48;;;;;;;;;38.33;34.67;;;;;;;;5028363;28;8857;-80
2021/03/08 01:34:16;;;;;;;;;40.00;38.67;;;;;;;;5009467;28;8861;-75
2021/03/08 01:36:43;;;;;;;;;37.67;31.00;;;;;;;;5019476;28;8856;-76
2021/03/08 01:39:10;;;;;;;;;59.33;49.00;;;;;;;;5025338;28;9004;-78
2021/03/08 01:41:37;;;;;;;;;55.33;48.00;;;;;;;;5024969;28;8857;-76
2021/03/08 01:44:05;;;;;;;;;48.00;45.00;;;;;;;;5025115;28;8869;-78
2021/03/08 01:46:32;;;;;;;;;43.00;40.67;;;;;;;;5008530;28;8865;-78
2021/03/08 01:48:59;;;;;;;;;44.67;41.67;;;;;;;;5007187;28;9623;-73
2021/03/08 01:51:27;;;;;;;;;53.00;49.00;;;;;;;;5025544;28;8866;-76
2021/03/08 01:53:54;;;;;;;;;35.33;35.33;;;;;;;;5008397;28;8852;-76
2021/03/08 01:56:21;;;;;;;;;46.33;44.33;;;;;;;;5023282;28;8881;-73
2021/03/08 01:58:48;;;;;;;;;65.67;57.00;;;;;;;;5026116;28;8869;-76
2021/03/08 02:01:14;;;;;;;;;69.67;58.67;;;;;;;;5023417;28;8813;-74
2021/03/08 02:03:41;;;;;;;;;75.33;57.33;;;;;;;;5025756;28;8871;-74
2021/03/08 02:06:08;;;;;;;;;69.33;59.33;;;;;;;;5024116;28;8883;-76
2021/03/08 02:08:38;;;;;;;;;82.75;64.25;;;;;;;;5008490;28;8872;-77
2021/03/08 02:11:04;;;;;;;;;78.33;63.00;;;;;;;;5023892;28;8856;-74
2021/03/08 02:14:08;;;;;;;;;41.33;39.67;;;;;;;;5024703;28;8961;-75
2021/03/08 02:16:43;;;;;;;;;84.25;66.00;;;;;;;;5025871;28;8880;-75
2021/03/08 02:19:20;;;;;;;;;65.33;55.00;;;;;;;;5010307;28;9722;-78
2021/03/08 02:22:13;;;;;;;;;57.33;49.00;;;;;;;;5008993;28;8893;-75
2021/03/08 02:25:23;;;;;;;;;51.67;48.00;;;;;;;;5024794;28;8860;-76
2021/03/08 02:28:24;;;;;;;;;46.67;42.33;;;;;;;;4985539;28;8864;-74
2021/03/08 02:30:53;;;;;;;;;52.67;49.00;;;;;;;;5017997;28;8833;-75
2021/03/08 02:33:23;;;;;;;;;48.33;46.67;;;;;;;;5019270;28;8866;-77
2021/03/08 02:35:54;;;;;;;;;45.00;43.33;;;;;;;;5021893;28;8943;-77
2021/03/08 02:38:24;;;;;;;;;48.00;46.00;;;;;;;;5023406;28;8857;-77
2021/03/08 02:40:55;;;;;;;;;48.00;45.00;;;;;;;;5024432;28;8865;-76
2021/03/08 02:43:30;;;;;;;;;36.33;36.33;;;;;;;;5021261;28;8879;-76
2021/03/08 02:46:00;;;;;;;;;45.33;39.67;;;;;;;;5024999;28;8876;-75
2021/03/08 02:48:28;;;;;;;;;34.67;34.33;;;;;;;;5024758;28;8918;-74
2021/03/08 02:50:56;;;;;;;;;38.00;38.00;;;;;;;;5022984;28;9003;-76
2021/03/08 02:53:24;;;;;;;;;27.67;27.67;;;;;;;;5023936;28;8860;-76
2021/03/08 02:55:55;;;;;;;;;42.33;38.67;;;;;;;;5025286;28;8856;-77
2021/03/08 02:58:23;;;;;;;;;29.67;29.67;;;;;;;;5023773;28;8892;-77
2021/03/08 03:00:50;;;;;;;;;42.33;36.00;;;;;;;;5023009;28;9603;-77
2021/03/08 03:03:20;;;;;;;;;36.67;34.33;;;;;;;;5024098;28;8872;-79
2021/03/08 03:05:47;;;;;;;;;40.00;37.00;;;;;;;;5006687;28;8888;-76
2021/03/08 03:08:15;;;;;;;;;27.00;26.00;;;;;;;;5022787;28;9615;-77
2021/03/08 03:10:43;;;;;;;;;36.33;35.33;;;;;;;;5021993;28;8902;-78
2021/03/08 03:13:10;;;;;;;;;33.67;31.67;;;;;;;;5023779;28;8860;-76
2021/03/08 03:15:39;;;;;;;;;43.67;41.67;;;;;;;;5022081;28;8876;-77
2021/03/08 03:18:07;;;;;;;;;43.67;43.67;;;;;;;;5027602;28;9663;-78
2021/03/08 03:20:36;;;;;;;;;45.33;45.00;;;;;;;;5012297;28;8852;-79
2021/03/08 03:23:03;;;;;;;;;37.67;37.33;;;;;;;;5023434;28;8976;-78
2021/03/08 03:25:31;;;;;;;;;32.67;32.67;;;;;;;;5003876;28;8856;-78
2021/03/08 03:27:58;;;;;;;;;48.33;43.33;;;;;;;;5023252;28;8881;-77
2021/03/08 03:30:28;;;;;;;;;24.33;24.00;;;;;;;;5006274;28;8847;-77
2021/03/08 03:32:56;;;;;;;;;30.00;28.00;;;;;;;;5018394;28;8860;-79
2021/03/08 03:35:25;;;;;;;;;37.67;37.67;;;;;;;;5024860;28;8864;-76
2021/03/08 03:37:55;;;;;;;;;38.33;36.67;;;;;;;;5022656;28;8861;-74
2021/03/08 03:40:23;;;;;;;;;39.67;35.33;;;;;;;;5019493;28;8910;-74
2021/03/08 03:42:51;;;;;;;;;37.67;36.33;;;;;;;;5021838;28;8873;-76
2021/03/08 03:45:20;;;;;;;;;37.33;37.33;;;;;;;;5022830;28;8880;-76
2021/03/08 03:47:48;;;;;;;;;27.00;27.00;;;;;;;;5024179;28;8876;-74
2021/03/08 03:50:16;;;;;;;;;39.67;39.00;;;;;;;;5016817;28;8844;-77
2021/03/08 03:52:43;;;;;;;;;25.00;24.67;;;;;;;;5023558;28;8874;-77
2021/03/08 03:55:14;;;;;;;;;30.67;28.67;;;;;;;;5017541;28;8857;-76
2021/03/08 03:58:03;;;;;;;;;34.00;34.00;;;;;;;;5023595;28;8880;-73
2021/03/08 04:00:37;;;;;;;;;33.67;32.67;;;;;;;;5018400;28;8771;-76
2021/03/08 04:03:07;;;;;;;;;30.67;29.33;;;;;;;;5022069;28;8894;-76
2021/03/08 04:05:35;;;;;;;;;37.33;36.33;;;;;;;;5022538;28;8892;-73
2021/03/08 04:08:03;;;;;;;;;40.75;38.75;;;;;;;;5022523;28;8872;-74
2021/03/08 04:10:32;;;;;;;;;31.33;31.00;;;;;;;;5002754;28;8885;-74
2021/03/08 04:13:01;;;;;;;;;33.33;33.33;;;;;;;;5021048;28;9634;-75
2021/03/08 04:15:30;;;;;;;;;45.00;43.00;;;;;;;;5023031;28;8884;-76
2021/03/08 04:17:58;;;;;;;;;40.50;40.00;;;;;;;;5022794;28;8909;-73
2021/03/08 04:20:27;;;;;;;;;39.00;39.00;;;;;;;;5022659;28;8891;-73
2021/03/08 04:22:56;;;;;;;;;46.75;44.50;;;;;;;;5023587;28;8880;-76
2021/03/08 04:25:23;;;;;;;;;36.75;34.25;;;;;;;;5022256;28;8868;-73
2021/03/08 04:27:52;;;;;;;;;39.00;38.50;;;;;;;;5015576;28;8970;-76
2021/03/08 04:30:20;;;;;;;;;39.75;37.25;;;;;;;;5022950;28;8845;-76
2021/03/08 04:32:50;;;;;;;;;39.00;35.00;;;;;;;;5028307;28;8857;-77
2021/03/08 04:35:18;;;;;;;;;37.50;36.25;;;;;;;;5015297;28;8886;-75
2021/03/08 04:37:45;;;;;;;;;41.50;34.75;;;;;;;;5016611;28;8876;-75
2021/03/08 04:40:15;;;;;;;;;39.25;37.50;;;;;;;;5043992;28;8865;-73
2021/03/08 04:42:43;;;;;;;;;34.00;33.50;;;;;;;;5034180;28;9664;-75
2021/03/08 04:45:13;;;;;;;;;41.50;38.75;;;;;;;;5031716;28;9635;-76
2021/03/08 04:47:42;;;;;;;;;37.75;35.50;;;;;;;;5011078;28;8987;-76
2021/03/08 04:50:11;;;;;;;;;37.00;35.50;;;;;;;;5010873;28;8878;-74
2021/03/08 04:52:39;;;;;;;;;31.75;31.75;;;;;;;;5027796;28;8874;-75
2021/03/08 04:55:08;;;;;;;;;43.50;40.00;;;;;;;;5026530;28;9600;-76
2021/03/08 04:57:36;;;;;;;;;43.00;38.50;;;;;;;;5026334;28;8898;-76
2021/03/08 05:00:07;;;;;;;;;44.50;41.25;;;;;;;;5032508;28;8888;-76
2021/03/08 05:02:36;;;;;;;;;43.75;35.75;;;;;;;;5026207;28;8844;-76
2021/03/08 05:05:05;;;;;;;;;34.50;34.50;;;;;;;;5017690;28;8885;-74
2021/03/08 05:07:35;;;;;;;;;43.50;36.75;;;;;;;;5008156;28;8882;-77
2021/03/08 05:10:04;;;;;;;;;42.25;39.50;;;;;;;;5027095;28;8821;-77
2021/03/08 05:12:31;;;;;;;;;39.75;38.50;;;;;;;;5019342;28;8882;-78
2021/03/08 05:14:59;;;;;;;;;40.25;40.25;;;;;;;;5031147;28;8885;-73
2021/03/08 05:17:26;;;;;;;;;33.75;33.00;;;;;;;;5027204;28;8880;-80
2021/03/08 05:19:54;;;;;;;;;35.00;35.00;;;;;;;;5022321;28;8987;-76
2021/03/08 05:22:21;;;;;;;;;24.25;22.25;;;;;;;;5026237;28;8872;-80
2021/03/08 05:24:50;;;;;;;;;31.25;30.00;;;;;;;;5021899;28;8903;-78
2021/03/08 05:27:17;;;;;;;;;42.25;39.25;;;;;;;;5028173;28;8972;-77
2021/03/08 05:29:46;;;;;;;;;40.25;38.25;;;;;;;;5026104;28;8888;-75
2021/03/08 05:32:15;;;;;;;;;30.25;29.00;;;;;;;;5028831;28;9700;-78
2021/03/08 05:34:46;;;;;;;;;34.75;34.25;;;;;;;;5027740;28;8875;-78
2021/03/08 05:37:15;;;;;;;;;33.25;30.00;;;;;;;;5027725;28;8876;-78
2021/03/08 05:39:43;;;;;;;;;40.50;39.50;;;;;;;;5027097;28;8939;-76
2021/03/08 05:42:12;;;;;;;;;42.50;36.00;;;;;;;;5027429;28;8865;-74
2021/03/08 05:44:44;;;;;;;;;39.25;39.25;;;;;;;;5023465;28;8845;-77
2021/03/08 05:47:40;;;;;;;;;45.50;44.25;;;;;;;;5025561;28;8883;-77
2021/03/08 05:50:45;;;;;;;;;37.50;36.50;;;;;;;;5016115;28;8982;-77
2021/03/08 05:53:37;;;;;;;;;42.75;37.00;;;;;;;;5026454;28;8975;-74
2021/03/08 05:56:24;;;;;;;;;47.00;44.00;;;;;;;;5023578;28;8864;-77
2021/03/08 05:59:08;;;;;;;;;46.50;43.75;;;;;;;;5009738;28;8970;-76
2021/03/08 06:01:59;;;;;;;;;41.75;40.25;;;;;;;;5016713;28;8832;-77
2021/03/08 06:04:50;;;;;;;;;47.75;40.00;;;;;;;;5014260;28;8868;-78
2021/03/08 06:07:55;;;;;;;;;34.50;34.00;;;;;;;;5014627;28;8865;-76
2021/03/08 06:10:24;;;;;;;;;40.75;40.75;;;;;;;;5021576;28;10264;-75
2021/03/08 06:12:55;;;;;;;;;53.25;46.50;;;;;;;;5021348;28;8872;-79
2021/03/08 06:15:22;;;;;;;;;43.00;43.00;;;;;;;;5019443;28;8864;-78
2021/03/08 06:17:50;;;;;;;;;46.00;43.00;;;;;;;;5027192;28;8955;-79
2021/03/08 06:20:27;;;;;;;;;44.25;43.50;;;;;;;;5025870;28;8916;-76
2021/03/08 06:22:54;;;;;;;;;45.50;45.00;;;;;;;;5022773;28;9626;-73
2021/03/08 06:25:23;;;;;;;;;42.00;42.00;;;;;;;;5022366;28;8865;-78
2021/03/08 06:27:51;;;;;;;;;29.75;29.75;;;;;;;;5023289;28;8888;-74
2021/03/08 06:30:20;;;;;;;;;41.75;41.75;;;;;;;;5022417;28;8995;-76
2021/03/08 06:32:47;;;;;;;;;26.25;25.00;;;;;;;;5026772;28;8861;-73
2021/03/08 06:35:16;;;;;;;;;47.75;43.75;;;;;;;;5024323;28;9654;-74
2021/03/08 06:37:43;;;;;;;;;36.25;36.25;;;;;;;;5024022;28;8896;-74
2021/03/08 06:40:11;;;;;;;;;38.00;38.00;;;;;;;;5021734;28;8900;-77
2021/03/08 06:42:39;;;;;;;;;41.50;41.25;;;;;;;;5021459;28;8873;-73
2021/03/08 06:45:08;;;;;;;;;36.25;34.50;;;;;;;;5024596;28;8924;-74
2021/03/08 06:47:35;;;;;;;;;31.50;31.50;;;;;;;;5023251;28;9631;-74
2021/03/08 06:50:01;;;;;;;;;35.50;33.50;;;;;;;;5020327;28;8899;-75
2021/03/08 06:52:40;;;;;;;;;27.25;26.75;;;;;;;;5022158;28;8983;-75
2021/03/08 06:55:08;;;;;;;;;40.00;38.25;;;;;;;;5023240;28;8988;-76
2021/03/08 06:57:36;;;;;;;;;46.00;43.00;;;;;;;;5018520;28;8898;-74
2021/03/08 07:00:07;;;;;;;;;42.50;42.00;;;;;;;;5021008;28;8865;-70
2021/03/08 07:02:39;;;;;;;;;51.75;44.75;;;;;;;;5023379;28;8971;-70
2021/03/08 07:05:06;;;;;;;;;45.25;44.00;;;;;;;;5021027;28;8887;-70
2021/03/08 07:07:53;;;;;;;;;57.75;46.75;;;;;;;;5022281;28;8953;-69
2021/03/08 07:10:32;;;;;;;;;47.00;45.25;;;;;;;;5015633;28;8870;-69
2021/03/08 07:12:59;;;;;;;;;35.00;31.50;;;;;;;;5021280;28;9455;-69
2021/03/08 07:15:27;;;;;;;;;59.50;48.75;;;;;;;;5023937;28;8900;-69
2021/03/08 07:18:08;;;;;;;;;67.50;55.50;;;;;;;;5076850;27;13633;-69
2021/03/08 07:20:35;;;;;;;;;54.33;48.33;;;;;;;;5081750;28;9693;-69
2021/03/08 07:23:02;;;;;;;;;50.67;46.00;;;;;;;;5077633;28;8877;-70
2021/03/08 07:25:30;;;;;;;;;47.67;45.00;;;;;;;;5077320;28;8916;-70
2021/03/08 07:27:58;;;;;;;;;39.33;39.00;;;;;;;;5073110;28;9048;-68
2021/03/08 07:30:27;;;;;;;;;53.33;46.00;;;;;;;;5075118;28;8786;-69
2021/03/08 07:32:58;;;;;;;;;57.33;50.00;;;;;;;;5060122;28;8865;-69
2021/03/08 07:35:41;;;;;;;;;48.67;41.67;;;;;;;;5055181;28;8858;-69
2021/03/08 07:38:10;;;;;;;;;37.67;37.67;;;;;;;;5057249;28;8841;-69
2021/03/08 07:40:38;;;;;;;;;54.67;48.00;;;;;;;;5058845;28;8879;-69
2021/03/08 07:43:05;;;;;;;;;48.33;46.67;;;;;;;;5055960;28;8927;-69
2021/03/08 07:45:40;;;;;;;;;56.33;49.67;;;;;;;;5057751;28;8869;-68
2021/03/08 07:48:12;;;;;;;;;52.67;49.00;;;;;;;;5058763;28;8857;-67
2021/03/08 07:50:39;;;;;;;;;61.00;53.67;;;;;;;;5056590;28;8865;-68
2021/03/08 07:53:29;;;;;;;;;52.67;49.00;;;;;;;;5044458;28;8879;-68
2021/03/08 07:55:57;;;;;;;;;67.00;52.00;;;;;;;;5057055;28;8857;-69
2021/03/08 07:58:26;;;;;;;;;73.00;58.00;;;;;;;;5056413;28;8869;-69
2021/03/08 08:00:54;;;;;;;;;55.00;49.67;;;;;;;;5050429;28;8828;-69
2021/03/08 08:03:20;;;;;;;;;63.67;52.33;;;;;;;;5058727;28;8942;-70
2021/03/08 08:05:53;;;;;;;;;56.33;48.67;;;;;;;;5046886;28;8892;-70
2021/03/08 08:08:22;;;;;;;;;56.33;51.67;;;;;;;;5050056;28;8959;-69
2021/03/08 08:10:52;;;;;;;;;51.33;48.33;;;;;;;;5058328;28;9045;-70
2021/03/08 08:13:21;;;;;;;;;59.67;51.33;;;;;;;;5051586;28;8950;-69
2021/03/08 08:15:49;;;;;;;;;60.33;48.67;;;;;;;;5061150;28;8885;-70
2021/03/08 08:18:18;;;;;;;;;70.67;58.33;;;;;;;;5086351;28;8860;-69
2021/03/08 08:20:48;;;;;;;;;63.33;53.00;;;;;;;;5076321;28;8876;-69
2021/03/08 08:23:15;;;;;;;;;54.67;50.33;;;;;;;;5075356;28;8868;-70
2021/03/08 08:25:45;;;;;;;;;54.00;46.00;;;;;;;;5079726;28;8906;-69
2021/03/08 08:28:13;;;;;;;;;35.67;35.67;;;;;;;;5071886;28;8864;-70
2021/03/08 08:30:39;;;;;;;;;64.67;54.33;;;;;;;;5057243;28;8829;-69
2021/03/08 08:33:06;;;;;;;;;57.67;49.00;;;;;;;;5060048;28;8986;-70
2021/03/08 08:35:34;;;;;;;;;73.00;58.67;;;;;;;;5066483;28;8979;-70
2021/03/08 08:38:22;;;;;;;;;47.00;45.00;;;;;;;;5061655;28;8948;-70
2021/03/08 08:41:22;;;;;;;;;53.00;42.00;;;;;;;;5046609;28;8854;-70
2021/03/08 08:44:37;;;;;;;;;63.33;47.67;;;;;;;;5038572;28;8880;-69
2021/03/08 08:47:35;;;;;;;;;50.33;46.33;;;;;;;;5056649;28;8883;-69
2021/03/08 08:50:04;;;;;;;;;50.00;46.67;;;;;;;;5066337;28;8882;-69
2021/03/08 08:52:50;;;;;;;;;43.00;37.00;;;;;;;;5066657;28;9609;-70
2021/03/08 08:55:20;;;;;;;;;57.33;47.67;;;;;;;;5054301;28;8873;-70
2021/03/08 08:58:23;;;;;;;;;61.33;47.00;;;;;;;;5059656;28;8862;-70
2021/03/08 09:01:27;;;;;;;;;66.33;51.00;;;;;;;;5066485;28;8823;-70
2021/03/08 09:03:56;;;;;;;;;50.33;43.67;;;;;;;;5063486;28;8863;-70
2021/03/08 09:06:49;;;;;;;;;40.00;31.33;;;;;;;;5065466;28;8852;-70
2021/03/08 09:09:17;;;;;;;;;47.67;45.00;;;;;;;;5052884;28;8863;-70
2021/03/08 09:11:51;;;;;;;;;66.33;52.67;;;;;;;;5057869;28;8856;-69
2021/03/08 09:14:37;;;;;;;;;70.33;53.00;;;;;;;;5054959;28;8886;-70
2021/03/08 09:17:10;;;;;;;;;50.00;46.33;;;;;;;;5062925;28;8888;-70
2021/03/08 09:19:38;;;;;;;;;62.67;49.33;;;;;;;;5069548;28;11566;-70
2021/03/08 09:22:34;;;;;;;;;52.50;41.25;;;;;;;;5059338;28;11705;-70
2021/03/08 09:25:02;;;;;;;;;53.00;44.25;;;;;;;;5061275;28;11581;-70
2021/03/08 09:27:31;;;;;;;;;46.00;40.25;;;;;;;;5058637;28;11547;-69
2021/03/08 09:30:07;;;;;;;;;41.25;35.75;;;;;;;;5060434;28;11538;-69
2021/03/08 09:32:34;;;;;;;;;49.25;40.00;;;;;;;;5068729;28;12092;-70
2021/03/08 09:35:02;;;;;;;;;33.75;33.00;;;;;;;;5040035;28;11550;-70
2021/03/08 09:37:31;;;;;;;;;41.75;33.00;;;;;;;;5062622;28;11698;-69
2021/03/08 09:39:59;;;;;;;;;45.00;35.25;;;;;;;;5063106;28;11640;-69
2021/03/08 09:42:33;;;;;;;;;43.00;38.50;;;;;;;;5062232;28;11618;-70
2021/03/08 09:45:00;;;;;;;;;43.50;37.50;;;;;;;;5055190;28;11636;-70
2021/03/08 09:47:40;;;;;;;;;46.75;42.25;;;;;;;;5055167;28;12410;-70
2021/03/08 09:50:08;;;;;;;;;43.25;39.50;;;;;;;;5062156;28;11568;-71
2021/03/08 09:52:36;;;;;;;;;51.00;44.00;;;;;;;;5061063;28;11563;-70
2021/03/08 09:55:04;;;;;;;;;57.75;47.00;;;;;;;;5063494;28;11642;-68
2021/03/08 09:57:34;;;;;;;;;58.75;47.00;;;;;;;;5061207;28;11547;-71
2021/03/08 10:00:01;;;;;;;;;76.67;62.33;;;;;;;;5062157;28;11583;-69
2021/03/08 10:02:28;;;;;;;;;81.67;62.33;;;;;;;;5063266;28;11493;-70
2021/03/08 10:04:57;;;;;;;;;65.25;52.25;;;;;;;;5044406;28;8860;-69
2021/03/08 10:07:25;;;;;;;;;55.50;44.25;;;;;;;;5060279;28;11552;-70
2021/03/08 10:10:08;;;;;;;;;64.25;49.50;;;;;;;;5064035;28;11551;-70
2021/03/08 10:12:35;;;;;;;;;76.33;63.00;;;;;;;;5059481;28;11552;-69
2021/03/08 10:15:02;;;;;;;;;71.00;54.25;;;;;;;;5060643;28;11623;-69
2021/03/08 10:17:29;;;;;;;;;64.75;51.75;;;;;;;;5064942;28;11563;-69
2021/03/08 10:19:59;;;;;;;;;50.75;42.75;;;;;;;;5046040;28;11597;-70
2021/03/08 10:22:34;;;;;;;;;50.50;41.25;;;;;;;;5044878;28;12420;-69
2021/03/08 10:25:01;;;;;;;;;45.25;39.00;;;;;;;;5055755;28;11587;-70
2021/03/08 10:27:30;;;;;;;;;48.25;41.75;;;;;;;;5061160;28;11676;-70
2021/03/08 10:29:57;;;;;;;;;39.50;38.75;;;;;;;;5060312;28;11580;-70
2021/03/08 10:32:24;;;;;;;;;49.00;39.75;;;;;;;;5058260;28;11563;-70
2021/03/08 10:34:52;;;;;;;;;44.50;39.00;;;;;;;;5056511;28;11549;-71
2021/03/08 10:37:21;;;;;;;;;46.00;39.00;;;;;;;;5058036;28;11709;-70
2021/03/08 10:39:51;;;;;;;;;41.50;38.50;;;;;;;;5060425;28;11629;-71
2021/03/08 10:42:21;;;;;;;;;34.25;32.25;;;;;;;;5061336;28;11660;-68
2021/03/08 10:44:48;;;;;;;;;37.25;30.50;;;;;;;;5057954;28;11544;-68
2021/03/08 10:47:16;;;;;;;;;24.25;19.25;;;;;;;;5058401;28;12212;-68
2021/03/08 10:49:51;;;;;;;;;42.50;38.25;;;;;;;;5059795;28;11530;-68
2021/03/08 10:52:17;;;;;;;;;44.25;41.50;;;;;;;;5060751;28;11620;-69
2021/03/08 10:54:47;;;;;;;;;38.75;34.50;;;;;;;;5060831;28;11513;-69
2021/03/08 10:57:14;;;;;;;;;41.50;38.25;;;;;;;;5059377;28;11628;-70
2021/03/08 10:59:48;;;;;;;;;38.75;36.25;;;;;;;;5060129;28;11575;-71
2021/03/08 11:02:16;;;;;;;;;41.25;39.50;;;;;;;;5042427;28;11537;-72
2021/03/08 11:04:44;;;;;;;;;43.00;41.75;;;;;;;;5062816;28;11645;-74
2021/03/08 11:07:12;;;;;;;;;41.25;36.00;;;;;;;;5062100;28;12177;-71
2021/03/08 11:09:43;;;;;;;;;46.25;39.00;;;;;;;;5058749;28;11635;-72
2021/03/08 11:12:18;;;;;;;;;42.50;39.00;;;;;;;;5061745;28;11679;-71
2021/03/08 11:14:50;;;;;;;;;41.25;36.25;;;;;;;;5062361;28;11685;-72
2021/03/08 11:17:17;;;;;;;;;45.25;38.50;;;;;;;;5063584;28;11634;-72
2021/03/08 11:19:44;;;;;;;;;43.50;39.75;;;;;;;;5062437;28;11665;-72
2021/03/08 11:22:13;;;;;;;;;49.00;41.75;;;;;;;;5045480;28;11592;-72
2021/03/08 11:24:44;;;;;;;;;40.50;39.00;;;;;;;;5062090;28;11549;-70
2021/03/08 11:27:14;;;;;;;;;49.75;41.25;;;;;;;;5057162;28;11563;-71
2021/03/08 11:29:55;;;;;;;;;47.50;41.75;;;;;;;;5060286;28;11575;-71
2021/03/08 11:32:24;;;;;;;;;46.50;39.00;;;;;;;;5064274;28;11477;-72
2021/03/08 11:34:52;;;;;;;;;43.00;36.25;;;;;;;;5059925;28;11584;-71
2021/03/08 11:37:20;;;;;;;;;44.50;41.75;;;;;;;;5063712;28;12356;-71
2021/03/08 11:39:49;;;;;;;;;41.00;38.00;;;;;;;;5062196;28;11690;-71
2021/03/08 11:42:18;;;;;;;;;42.25;38.25;;;;;;;;5060650;28;11554;-72
2021/03/08 11:44:47;;;;;;;;;40.75;33.00;;;;;;;;5054274;28;11587;-71
2021/03/08 11:47:14;;;;;;;;;34.75;34.00;;;;;;;;5057501;28;11562;-72
2021/03/08 11:49:42;;;;;;;;;33.00;31.25;;;;;;;;5062005;28;11559;-71
2021/03/08 11:52:09;;;;;;;;;43.75;37.75;;;;;;;;5061557;28;11593;-72
2021/03/08 11:54:36;;;;;;;;;47.25;41.25;;;;;;;;5061411;28;12347;-72
2021/03/08 11:57:11;;;;;;;;;33.00;32.50;;;;;;;;5041751;28;11675;-72
2021/03/08 11:59:38;;;;;;;;;40.75;37.50;;;;;;;;5059001;28;11502;-72
2021/03/08 12:02:06;;;;;;;;;39.50;35.75;;;;;;;;5060509;28;11475;-72
2021/03/08 12:04:33;;;;;;;;;39.75;34.75;;;;;;;;5039359;28;12461;-73
2021/03/08 12:07:00;;;;;;;;;25.75;22.00;;;;;;;;5066235;28;11514;-72
2021/03/08 12:09:27;;;;;;;;;36.50;32.25;;;;;;;;5061776;28;11815;-72
2021/03/08 12:11:54;;;;;;;;;34.50;32.50;;;;;;;;5062797;28;11487;-72
2021/03/08 12:14:21;;;;;;;;;24.25;20.75;;;;;;;;5060449;28;11590;-71
2021/03/08 12:16:48;;;;;;;;;33.00;28.50;;;;;;;;5063642;28;11510;-72
2021/03/08 12:19:17;;;;;;;;;33.50;31.75;;;;;;;;5070085;28;11603;-71
2021/03/08 12:21:45;;;;;;;;;33.00;30.50;;;;;;;;5066817;28;11504;-71
2021/03/08 12:24:13;;;;;;;;;42.75;39.75;;;;;;;;5055932;28;12343;-72
2021/03/08 12:26:40;;;;;;;;;34.25;30.75;;;;;;;;5064709;28;12317;-71
2021/03/08 12:29:07;;;;;;;;;42.25;35.50;;;;;;;;5064645;28;12119;-70
2021/03/08 12:31:34;;;;;;;;;31.75;31.75;;;;;;;;5062652;28;11566;-70
2021/03/08 12:34:01;;;;;;;;;37.75;34.25;;;;;;;;5061796;28;11579;-72
2021/03/08 12:36:28;;;;;;;;;38.25;37.00;;;;;;;;5060779;28;11827;-71
2021/03/08 12:38:55;;;;;;;;;35.25;34.25;;;;;;;;5045814;28;11526;-71
2021/03/08 12:41:22;;;;;;;;;40.50;34.50;;;;;;;;5059471;28;11631;-70
2021/03/08 12:43:49;;;;;;;;;36.75;30.25;;;;;;;;5064272;28;11489;-71
2021/03/08 12:46:16;;;;;;;;;37.00;36.50;;;;;;;;5060313;28;11483;-71
2021/03/08 12:48:43;;;;;;;;;40.50;37.00;;;;;;;;5065000;28;11563;-71
2021/03/08 12:51:09;;;;;;;;;45.00;36.75;;;;;;;;5065373;28;12623;-72
2021/03/08 12:53:37;;;;;;;;;35.50;31.75;;;;;;;;5063888;28;11512;-71
2021/03/08 12:56:04;;;;;;;;;38.25;33.25;;;;;;;;5062238;28;11527;-71
2021/03/08 12:58:31;;;;;;;;;33.75;32.00;;;;;;;;5063514;28;11519;-70
2021/03/08 13:00:58;;;;;;;;;43.25;37.50;;;;;;;;5062554;28;11524;-71
2021/03/08 13:03:25;;;;;;;;;41.00;35.25;;;;;;;;5060321;28;11595;-71
2021/03/08 13:05:52;;;;;;;;;38.50;36.00;;;;;;;;5062647;28;11546;-71
2021/03/08 13:08:19;;;;;;;;;40.00;36.00;;;;;;;;5059934;28;11524;-71
2021/03/08 13:10:47;;;;;;;;;39.00;36.50;;;;;;;;5062137;28;11513;-70
2021/03/08 13:13:14;;;;;;;;;30.25;29.75;;;;;;;;5063362;28;11512;-71
2021/03/08 13:15:41;;;;;;;;;33.75;31.50;;;;;;;;5062852;28;11033;-70
2021/03/08 13:18:09;;;;;;;;;25.75;23.25;;;;;;;;5066379;28;11071;-71
2021/03/08 13:20:36;;;;;;;;;38.25;30.50;;;;;;;;5064077;28;11882;-71
2021/03/08 13:23:03;;;;;;;;;39.50;33.50;;;;;;;;5064425;28;11005;-71
2021/03/08 13:25:31;;;;;;;;;47.75;41.25;;;;;;;;5046721;28;11141;-71
2021/03/08 13:27:59;;;;;;;;;50.25;41.25;;;;;;;;5045347;28;11493;-71
2021/03/08 13:30:27;;;;;;;;;47.00;42.25;;;;;;;;5061163;28;11508;-71
2021/03/08 13:32:54;;;;;;;;;41.50;34.50;;;;;;;;5066287;28;11612;-69
2021/03/08 13:35:21;;;;;;;;;39.25;33.75;;;;;;;;5073442;28;11031;-70
2021/03/08 13:37:48;;;;;;;;;30.50;30.50;;;;;;;;5069722;28;11769;-70
2021/03/08 13:40:16;;;;;;;;;27.50;22.75;;;;;;;;5065263;28;10802;-70
2021/03/08 13:42:47;;;;;;;;;44.25;38.75;;;;;;;;5063857;28;10822;-70
2021/03/08 13:45:18;;;;;;;;;52.75;39.25;;;;;;;;5064794;28;11237;-72
2021/03/08 13:47:45;;;;;;;;;28.25;25.75;;;;;;;;5054723;28;11783;-71
2021/03/08 13:50:13;;;;;;;;;23.25;19.50;;;;;;;;5063343;28;10888;-71
2021/03/08 13:52:40;;;;;;;;;34.25;31.50;;;;;;;;5066227;28;10817;-71
2021/03/08 13:55:08;;;;;;;;;37.75;26.25;;;;;;;;5062448;28;11070;-71
2021/03/08 13:57:35;;;;;;;;;34.75;31.75;;;;;;;;5061541;28;11087;-71
2021/03/08 14:00:01;;;;;;;;;18.75;17.50;;;;;;;;5065132;28;11286;-71
2021/03/08 14:02:30;;;;;;;;;34.75;28.50;;;;;;;;5065389;28;11003;-71
2021/03/08 14:04:56;;;;;;;;;30.50;30.50;;;;;;;;5044348;28;11005;-72
2021/03/08 14:07:23;;;;;;;;;29.50;27.00;;;;;;;;5063193;28;11345;-71
2021/03/08 14:09:50;;;;;;;;;20.75;20.75;;;;;;;;5047729;28;11073;-71
2021/03/08 14:12:17;;;;;;;;;31.50;29.75;;;;;;;;5063817;28;10932;-71
2021/03/08 14:14:45;;;;;;;;;40.75;38.75;;;;;;;;5065860;28;10842;-71
2021/03/08 14:17:11;;;;;;;;;36.25;35.00;;;;;;;;5066669;28;11258;-71
2021/03/08 14:19:40;;;;;;;;;34.50;30.50;;;;;;;;5072151;28;11717;-71
2021/03/08 14:22:06;;;;;;;;;46.00;38.00;;;;;;;;5065364;28;10839;-71
2021/03/08 14:24:33;;;;;;;;;43.25;38.50;;;;;;;;5063974;28;11076;-71
2021/03/08 14:27:00;;;;;;;;;31.25;27.75;;;;;;;;5063909;28;11946;-72
2021/03/08 14:29:27;;;;;;;;;45.00;41.25;;;;;;;;5059464;28;10848;-72
2021/03/08 14:31:55;;;;;;;;;39.75;36.00;;;;;;;;5068089;28;11504;-71
2021/03/08 14:34:22;;;;;;;;;42.00;38.50;;;;;;;;5049103;28;11106;-72
2021/03/08 14:36:50;;;;;;;;;31.00;31.00;;;;;;;;5052524;28;11152;-71
2021/03/08 14:39:17;;;;;;;;;41.50;36.25;;;;;;;;5056219;28;10670;-72
2021/03/08 14:41:44;;;;;;;;;65.50;51.00;;;;;;;;5063724;28;10991;-72
2021/03/08 14:44:10;;;;;;;;;63.25;51.50;;;;;;;;5064250;28;11527;-72